createdAt,value
2024-05-09T00:01:29.433Z,4.95
2024-05-09T00:06:37.267Z,6.80
2024-05-09T00:16:48.583Z,5.50
2024-05-09T00:21:56.410Z,5.50
2024-05-09T00:32:08.052Z,6.68
2024-05-09T00:37:16.391Z,5.28
2024-05-09T00:42:21.537Z,7.30
2024-05-09T00:47:26.936Z,5.05
2024-05-09T00:52:35.084Z,5.88
2024-05-09T00:57:41.196Z,5.95
2024-05-09T01:02:46.455Z,6.35
2024-05-09T01:07:54.364Z,6.95
2024-05-09T01:18:10.725Z,8.80
2024-05-09T01:23:19.715Z,7.50
2024-05-09T01:28:24.940Z,7.50
2024-05-09T01:33:30.293Z,6.82
2024-05-09T01:38:38.280Z,7.90
2024-05-09T01:43:43.479Z,7.70
2024-05-09T01:48:49.546Z,8.73
2024-05-09T01:53:58.616Z,9.02
2024-05-09T01:59:04.866Z,8.18
2024-05-09T02:04:10.571Z,8.32
2024-05-09T02:09:19.103Z,7.97
2024-05-09T02:14:24.445Z,7.88
2024-05-09T02:19:29.972Z,10.02
2024-05-09T02:24:37.950Z,8.38
2024-05-09T02:34:48.369Z,9.13
2024-05-09T02:39:56.610Z,8.38
2024-05-09T02:45:02.079Z,10.48
2024-05-09T02:50:10.854Z,8.45
2024-05-09T02:55:23.899Z,9.02
2024-05-09T03:05:46.511Z,8.55
2024-05-09T03:10:54.727Z,9.10
2024-05-09T03:21:08.623Z,9.60
2024-05-09T03:26:19.440Z,8.90
2024-05-09T03:31:24.655Z,9.52
2024-05-09T03:36:29.812Z,8.30
2024-05-09T03:41:37.701Z,9.40
2024-05-09T03:46:43.768Z,9.73
2024-05-09T03:51:49.103Z,8.30
2024-05-09T03:56:57.056Z,9.18
2024-05-09T04:02:02.294Z,7.95
2024-05-09T04:07:07.981Z,8.60
2024-05-09T04:12:15.949Z,8.25
2024-05-09T04:17:21.215Z,9.52
2024-05-09T04:22:26.419Z,9.43
2024-05-09T04:27:34.255Z,8.80
2024-05-09T04:37:45.903Z,10.90
2024-05-09T04:42:53.733Z,10.30
2024-05-09T04:53:04.811Z,12.40
2024-05-09T04:58:13.933Z,12.15
2024-05-09T05:03:21.292Z,13.13
2024-05-09T05:08:26.689Z,10.27
2024-05-09T05:13:40.900Z,12.93
2024-05-09T05:18:47.212Z,12.07
2024-05-09T05:23:52.477Z,12.02
2024-05-09T05:29:00.382Z,11.00
2024-05-09T05:39:10.678Z,11.35
2024-05-09T05:44:18.540Z,12.15
2024-05-09T05:54:29.019Z,12.65
2024-05-09T05:59:36.963Z,13.68
2024-05-09T06:04:42.669Z,13.40
2024-05-09T06:09:49.950Z,12.82
2024-05-09T06:14:58.793Z,13.25
2024-05-09T06:20:05.834Z,13.38
2024-05-09T06:25:14.376Z,13.45
2024-05-09T06:30:30.009Z,13.13
2024-05-09T06:35:42.565Z,12.88
2024-05-09T06:40:47.911Z,12.70
2024-05-09T06:45:55.773Z,12.13
2024-05-09T06:56:06.616Z,11.43
2024-05-09T07:01:14.535Z,11.68
2024-05-09T07:06:19.842Z,12.38
2024-05-09T07:11:25.128Z,12.15
2024-05-09T07:16:33.020Z,12.65
2024-05-09T07:26:43.254Z,13.88
2024-05-09T07:31:51.179Z,12.73
2024-05-09T07:36:56.493Z,12.68
2024-05-09T07:42:01.705Z,14.60
2024-05-09T07:48:14.788Z,13.23
2024-05-09T07:53:33.210Z,13.00
2024-05-09T07:58:00.166Z,13.55
2024-05-09T08:03:08.699Z,14.80
2024-05-09T08:08:14.014Z,13.15
2024-05-09T08:13:19.292Z,14.73
2024-05-09T08:18:27.415Z,15.52
2024-05-09T08:23:32.845Z,14.90
2024-05-09T08:28:38.051Z,14.43
2024-05-09T08:33:51.248Z,15.50
2024-05-09T08:38:57.052Z,15.05
2024-05-09T08:44:02.556Z,16.15
2024-05-09T08:49:11.086Z,14.75
2024-05-09T08:54:17.712Z,13.52
2024-05-09T08:59:36.907Z,13.27
2024-05-09T09:04:53.883Z,14.35
2024-05-09T09:10:00.216Z,13.23
2024-05-09T09:15:05.756Z,12.88
2024-05-09T09:20:19.371Z,13.90
2024-05-09T09:25:31.482Z,13.00
2024-05-09T09:30:38.102Z,12.73
2024-05-09T09:35:46.250Z,13.57
2024-05-09T09:40:52.843Z,11.35
2024-05-09T09:46:00.467Z,11.38
2024-05-09T09:51:09.885Z,12.48
2024-05-09T09:56:17.333Z,10.52
2024-05-09T10:01:22.741Z,11.43
2024-05-09T10:06:31.868Z,11.63
2024-05-09T10:11:45.099Z,11.35
2024-05-09T10:16:54.066Z,11.00
2024-05-09T10:22:08.981Z,9.93
2024-05-09T10:27:14.340Z,10.40
2024-05-09T10:32:20.904Z,9.25
2024-05-09T10:37:30.458Z,10.68
2024-05-09T10:42:36.456Z,10.35
2024-05-09T10:47:42.265Z,10.90
2024-05-09T10:52:50.182Z,10.25
2024-05-09T11:03:00.675Z,9.50
2024-05-09T11:08:09.645Z,10.30
2024-05-09T11:13:14.914Z,10.80
2024-05-09T11:18:26.473Z,11.10
2024-05-09T11:23:35.734Z,10.88
2024-05-09T11:28:43.588Z,10.48
2024-05-09T11:38:56.892Z,10.50
2024-05-09T11:49:07.421Z,10.05
2024-05-09T11:54:18.971Z,9.82
2024-05-09T11:59:24.186Z,8.88
2024-05-09T12:04:29.620Z,10.50
2024-05-09T12:09:37.740Z,9.18
2024-05-09T12:14:43.090Z,9.55
2024-05-09T12:19:48.353Z,10.27
2024-05-09T12:24:56.281Z,10.90
2024-05-09T12:30:01.523Z,11.23
2024-05-09T12:35:07.432Z,10.68
2024-05-09T12:40:22.976Z,11.70
2024-05-09T12:45:36.815Z,10.23
2024-05-09T12:50:43.027Z,11.38
2024-05-09T12:55:56.857Z,9.27
2024-05-09T13:01:05.527Z,9.83
2024-05-09T13:06:10.854Z,8.48
2024-05-09T13:11:18.980Z,9.52
2024-05-09T13:16:24.403Z,9.65
2024-05-09T13:21:30.209Z,7.88
2024-05-09T13:26:38.150Z,8.68
2024-05-09T13:31:43.418Z,8.15
2024-05-09T13:36:48.686Z,7.65
2024-05-09T13:41:56.569Z,9.40
2024-05-09T13:52:07.611Z,8.55
2024-05-09T13:57:16.708Z,8.43
2024-05-09T14:02:22.242Z,8.70
2024-05-09T14:07:27.720Z,8.70
2024-05-09T14:12:35.527Z,8.68
2024-05-09T14:22:45.834Z,7.32
2024-05-09T14:27:53.865Z,8.45
2024-05-09T14:32:59.312Z,8.02
2024-05-09T14:38:04.725Z,7.63
2024-05-09T14:43:14.881Z,7.78
2024-05-09T14:48:21.284Z,10.32
2024-05-09T14:53:27.152Z,8.65
2024-05-09T14:58:34.947Z,8.63
2024-05-09T15:08:45.408Z,8.00
2024-05-09T15:13:53.393Z,7.47
2024-05-09T15:18:59.006Z,6.72
2024-05-09T15:24:04.496Z,7.70
2024-05-09T15:29:12.359Z,8.60
2024-05-09T15:34:17.546Z,9.82
2024-05-09T15:39:24.459Z,7.05
2024-05-09T15:44:32.228Z,8.07
2024-05-09T15:54:42.884Z,6.80
2024-05-09T15:59:51.027Z,8.10
2024-05-09T16:04:56.340Z,7.45
2024-05-09T16:10:01.766Z,6.70
2024-05-09T16:15:10.869Z,6.90
2024-05-09T16:20:25.751Z,7.50
2024-05-09T16:25:38.540Z,6.43
2024-05-09T16:30:46.481Z,5.88
2024-05-09T16:35:52.089Z,6.10
2024-05-09T16:40:57.565Z,6.43
2024-05-09T16:46:06.196Z,6.72
2024-05-09T16:51:11.474Z,5.80
2024-05-09T16:56:16.881Z,5.57
2024-05-09T17:01:24.956Z,6.40
2024-05-09T17:06:30.425Z,5.32
2024-05-09T17:11:35.890Z,5.72
2024-05-09T17:16:43.916Z,6.20
2024-05-09T17:21:49.224Z,7.68
2024-05-09T17:26:54.748Z,6.57
2024-05-09T17:32:02.751Z,5.85
2024-05-09T17:37:08.246Z,6.18
2024-05-09T17:42:13.487Z,5.45
2024-05-09T17:47:21.581Z,5.68
2024-05-09T17:52:26.999Z,5.60
2024-05-09T17:57:32.309Z,6.00
2024-05-09T18:02:40.434Z,6.03
2024-05-09T18:07:45.682Z,6.95
2024-05-09T18:12:50.924Z,5.80
2024-05-09T18:17:59.449Z,6.28
2024-05-09T18:23:05.012Z,5.80
2024-05-09T18:28:11.265Z,6.70
2024-05-09T18:33:19.336Z,5.55
2024-05-09T18:38:26.887Z,5.45
2024-05-09T18:43:38.488Z,6.63
2024-05-09T18:48:52.627Z,5.57
2024-05-09T18:53:57.981Z,7.07
2024-05-09T18:59:03.241Z,6.78
2024-05-09T19:04:11.404Z,6.72
2024-05-09T19:09:16.842Z,7.75
2024-05-09T19:14:22.032Z,7.55
2024-05-09T19:19:30.390Z,7.55
2024-05-09T19:24:36.000Z,8.55
2024-05-09T19:29:41.230Z,7.78
2024-05-09T19:34:49.104Z,7.53
2024-05-09T19:39:54.348Z,9.05
2024-05-09T19:44:59.540Z,7.45
2024-05-09T19:50:13.938Z,8.48
2024-05-09T19:55:24.684Z,9.77
2024-05-09T20:00:35.654Z,9.18
2024-05-09T20:05:47.623Z,8.77
2024-05-09T20:10:53.089Z,7.57
2024-05-09T20:15:58.455Z,7.43
2024-05-09T20:21:06.895Z,8.23
2024-05-09T20:26:12.392Z,8.40
2024-05-09T20:31:25.840Z,8.32
2024-05-09T20:36:33.732Z,8.07
2024-05-09T20:41:38.977Z,7.35
2024-05-09T20:46:45.233Z,8.20
2024-05-09T20:51:53.188Z,10.73
2024-05-09T20:56:58.426Z,8.05
2024-05-09T21:02:03.831Z,9.90
2024-05-09T21:07:11.971Z,8.80
2024-05-09T21:12:17.297Z,7.70
2024-05-09T21:17:22.585Z,8.13
2024-05-09T21:22:30.663Z,7.68
2024-05-09T21:27:35.929Z,7.82
2024-05-09T21:32:41.414Z,7.47
2024-05-09T21:37:49.400Z,7.60
2024-05-09T21:42:54.929Z,7.10
2024-05-09T21:48:00.471Z,8.07
2024-05-09T21:53:08.631Z,6.97
2024-05-09T21:58:15.685Z,6.30
2024-05-09T22:03:20.984Z,9.07
2024-05-09T22:08:28.872Z,7.55
2024-05-09T22:13:34.107Z,6.50
2024-05-09T22:18:39.466Z,7.22
2024-05-09T22:23:47.458Z,7.22
2024-05-09T22:28:52.684Z,6.43
2024-05-09T22:33:58.198Z,8.38
2024-05-09T22:39:06.682Z,7.90
2024-05-09T22:44:11.931Z,8.13
2024-05-09T22:49:17.243Z,7.53
2024-05-09T22:54:25.153Z,8.15
2024-05-09T22:59:33.153Z,7.90
2024-05-09T23:04:40.987Z,6.50
2024-05-09T23:09:50.628Z,7.63
2024-05-09T23:14:55.859Z,6.22
2024-05-09T23:20:01.123Z,7.05
2024-05-09T23:25:09.489Z,7.05
2024-05-09T23:30:25.389Z,6.28
2024-05-09T23:35:34.649Z,5.57
2024-05-09T23:40:43.340Z,6.97
2024-05-09T23:45:48.953Z,7.80
2024-05-09T23:50:54.232Z,6.35
2024-05-09T23:56:02.068Z,6.47
